Aviation Digital Data Service (ADDS)

Output produced by METARs form (0557 UTC 16 February 2019)
found at http://www.aviationweather.gov/metar/data/
 
Forecast for: GMML (LAAYOUNE/HASSAN , MA)
Text: TAF GMML 160500Z 1606/1712 32007KT 8000 NSC
Forecast period: 0600 to 1300 UTC 16 February 2019
Forecast type: FROM: standard forecast or significant change
Winds: from the NW (320 degrees) at 8 MPH (7 knots; 3.6 m/s)
Visibility: 5 miles (8 km)
Ceiling: unknown
Clouds: missing
Weather: no significant weather forecast for this period
Text: BECMG 1613/1615 33015KT
Forecast period: 1300 UTC 16 February 2019 to 1200 UTC 17 February 2019
Forecast type: BECOMING: Conditions expected to become as follows by 1500 UTC 16 February 2019
Winds: from the NNW (330 degrees) at 17 MPH (15 knots; 7.7 m/s)
Visibility: 5 miles (8 km)
Ceiling: unknown
Clouds: missing
Weather: no significant weather forecast for this period